GLRNC EGBO-EGBO
Flight info
| Callsign | GLRNC |
|---|---|
| Flight time | 0h 9m |
| Altitude | 2000 |
| Route | LCAL |
| Aircraft | P28A/L-VGD/A |
Departure
| Time | 2026-04-20 20:03 |
|---|---|
| Airport | Wolverhampton Halfpenny Green Airport (EGBO) |
Arrival
| Time | 2026-04-20 20:12 |
|---|---|
| Airport | Wolverhampton Halfpenny Green Airport (EGBO) |
| Time | Latitude | Longitude | Altitude | Speed | Heading |
|---|---|---|---|---|---|
| 2026-04-20 19:53 | 52.51552 | -2.26288 | 270 ft | 0 kts | 95° |
| 2026-04-20 19:57 | 52.51552 | -2.26286 | 270 ft | 1 kts | 92° |
| 2026-04-20 19:57 | 52.51539 | -2.26272 | 270 ft | 9 kts | 195° |
| 2026-04-20 19:57 | 52.51523 | -2.26347 | 269 ft | 10 kts | 274° |
| 2026-04-20 19:58 | 52.51531 | -2.26471 | 267 ft | 10 kts | 275° |
| 2026-04-20 19:58 | 52.51539 | -2.26595 | 265 ft | 12 kts | 277° |
| 2026-04-20 19:58 | 52.51566 | -2.26736 | 261 ft | 15 kts | 355° |
| 2026-04-20 19:58 | 52.51623 | -2.26668 | 272 ft | 9 kts | 38° |
| 2026-04-20 19:59 | 52.51691 | -2.26588 | 276 ft | 13 kts | 44° |
| 2026-04-20 19:59 | 52.51699 | -2.26442 | 275 ft | 14 kts | 96° |
| 2026-04-20 19:59 | 52.51689 | -2.26288 | 274 ft | 13 kts | 96° |
| 2026-04-20 19:59 | 52.51678 | -2.26149 | 275 ft | 11 kts | 96° |
| 2026-04-20 20:00 | 52.51672 | -2.26064 | 275 ft | 0 kts | 70° |
| 2026-04-20 20:01 | 52.51669 | -2.25976 | 274 ft | 17 kts | 95° |
| 2026-04-20 20:01 | 52.51592 | -2.25851 | 275 ft | 14 kts | 155° |
| 2026-04-20 20:01 | 52.51560 | -2.25815 | 276 ft | 4 kts | 311° |
| 2026-04-20 20:01 | 52.51576 | -2.25835 | 276 ft | 1 kts | 341° |
| 2026-04-20 20:02 | 52.51606 | -2.25866 | 274 ft | 14 kts | 317° |
| 2026-04-20 20:02 | 52.51890 | -2.26065 | 273 ft | 73 kts | 330° |
| 2026-04-20 20:02 | 52.52344 | -2.26424 | 517 ft | 76 kts | 341° |
| 2026-04-20 20:02 | 52.52830 | -2.26880 | 745 ft | 88 kts | 314° |
| 2026-04-20 20:03 | 52.52862 | -2.27870 | 998 ft | 92 kts | 241° |
| 2026-04-20 20:03 | 52.52589 | -2.28842 | 1267 ft | 93 kts | 248° |
| 2026-04-20 20:03 | 52.52516 | -2.29156 | 1356 ft | 98 kts | 246° |
| 2026-04-20 20:04 | 52.52209 | -2.30200 | 1401 ft | 106 kts | 237° |
| 2026-04-20 20:04 | 52.51637 | -2.30779 | 1491 ft | 96 kts | 175° |
| 2026-04-20 20:04 | 52.50976 | -2.30568 | 1564 ft | 99 kts | 155° |
| 2026-04-20 20:04 | 52.50352 | -2.30111 | 1591 ft | 99 kts | 142° |
| 2026-04-20 20:05 | 52.49786 | -2.29566 | 1732 ft | 97 kts | 143° |
| 2026-04-20 20:05 | 52.49166 | -2.28969 | 1515 ft | 108 kts | 142° |
| 2026-04-20 20:05 | 52.48756 | -2.28175 | 1395 ft | 87 kts | 94° |
| 2026-04-20 20:05 | 52.48955 | -2.27232 | 1331 ft | 89 kts | 69° |
| 2026-04-20 20:06 | 52.49246 | -2.26307 | 1210 ft | 96 kts | 66° |
| 2026-04-20 20:06 | 52.49533 | -2.25328 | 1174 ft | 89 kts | 64° |
| 2026-04-20 20:06 | 52.50008 | -2.24846 | 832 ft | 84 kts | 11° |
| 2026-04-20 20:06 | 52.50522 | -2.25077 | 575 ft | 73 kts | 341° |
| 2026-04-20 20:07 | 52.50961 | -2.25400 | 422 ft | 69 kts | 346° |
| 2026-04-20 20:07 | 52.51393 | -2.25705 | 297 ft | 67 kts | 341° |
| 2026-04-20 20:07 | 52.51769 | -2.25968 | 273 ft | 50 kts | 334° |
| 2026-04-20 20:07 | 52.52192 | -2.26289 | 396 ft | 75 kts | 339° |
| 2026-04-20 20:08 | 52.52678 | -2.26672 | 645 ft | 81 kts | 340° |
| 2026-04-20 20:08 | 52.53094 | -2.27301 | 860 ft | 91 kts | 285° |
| 2026-04-20 20:08 | 52.53007 | -2.28362 | 1070 ft | 97 kts | 251° |
| 2026-04-20 20:08 | 52.52807 | -2.29362 | 1242 ft | 90 kts | 248° |
| 2026-04-20 20:09 | 52.52333 | -2.30004 | 1317 ft | 95 kts | 188° |
| 2026-04-20 20:09 | 52.51702 | -2.29900 | 1416 ft | 90 kts | 156° |
| 2026-04-20 20:09 | 52.51127 | -2.29603 | 1454 ft | 87 kts | 147° |
| 2026-04-20 20:09 | 52.50586 | -2.29177 | 1503 ft | 86 kts | 145° |
| 2026-04-20 20:10 | 52.50016 | -2.28830 | 1497 ft | 89 kts | 154° |
| 2026-04-20 20:10 | 52.49457 | -2.28496 | 1406 ft | 84 kts | 146° |
| 2026-04-20 20:10 | 52.49122 | -2.27782 | 1268 ft | 80 kts | 89° |
| 2026-04-20 20:10 | 52.49337 | -2.26941 | 1177 ft | 78 kts | 64° |
| 2026-04-20 20:11 | 52.49599 | -2.26136 | 1139 ft | 79 kts | 67° |
| 2026-04-20 20:11 | 52.49817 | -2.25347 | 1067 ft | 74 kts | 68° |
| 2026-04-20 20:11 | 52.50267 | -2.25068 | 825 ft | 82 kts | 3° |
| 2026-04-20 20:11 | 52.50798 | -2.25300 | 532 ft | 71 kts | 346° |
| 2026-04-20 20:12 | 52.51232 | -2.25592 | 328 ft | 65 kts | 344° |
| 2026-04-20 20:12 | 52.51597 | -2.25844 | 275 ft | 48 kts | 339° |
| 2026-04-20 20:12 | 52.51992 | -2.26141 | 336 ft | 74 kts | 329° |
| 2026-04-20 20:13 | 52.52886 | -2.26916 | 889 ft | 78 kts | 339° |
| 2026-04-20 20:13 | 52.53400 | -2.27327 | 1121 ft | 86 kts | 340° |
| 2026-04-20 20:13 | 52.53935 | -2.27813 | 1354 ft | 87 kts | 340° |
| 2026-04-20 20:13 | 52.54455 | -2.28375 | 1564 ft | 95 kts | 329° |
| 2026-04-20 20:14 | 52.54972 | -2.29051 | 1775 ft | 100 kts | 332° |
| 2026-04-20 20:14 | 52.55529 | -2.29799 | 2057 ft | 110 kts | 328° |
| 2026-04-20 20:14 | 52.56149 | -2.30595 | 2021 ft | 117 kts | 329° |
| 2026-04-20 20:14 | 52.56777 | -2.31455 | 1963 ft | 117 kts | 325° |
| 2026-04-20 20:15 | 52.57192 | -2.32028 | 1970 ft | 118 kts | 325° |
| 2026-04-20 20:15 | 52.57758 | -2.33001 | 2067 ft | 115 kts | 319° |
| 2026-04-20 20:15 | 52.58268 | -2.34047 | 2046 ft | 120 kts | 313° |
| 2026-04-20 20:15 | 52.58810 | -2.35075 | 2134 ft | 118 kts | 317° |
| 2026-04-20 20:16 | 52.59344 | -2.36195 | 1995 ft | 127 kts | 312° |
| 2026-04-20 20:16 | 52.59858 | -2.37341 | 2026 ft | 122 kts | 313° |
| 2026-04-20 20:16 | 52.60358 | -2.38489 | 2016 ft | 126 kts | 307° |
| 2026-04-20 20:16 | 52.60842 | -2.39694 | 2001 ft | 126 kts | 309° |
| 2026-04-20 20:17 | 52.61296 | -2.40893 | 1996 ft | 124 kts | 305° |
| 2026-04-20 20:17 | 52.61708 | -2.42137 | 1957 ft | 126 kts | 295° |
| 2026-04-20 20:17 | 52.62006 | -2.43501 | 1929 ft | 127 kts | 291° |
| 2026-04-20 20:17 | 52.62248 | -2.44892 | 1933 ft | 124 kts | 287° |
| 2026-04-20 20:18 | 52.62388 | -2.46288 | 1838 ft | 126 kts | 280° |
| 2026-04-20 20:18 | 52.62739 | -2.47548 | 1813 ft | 121 kts | 315° |
| 2026-04-20 20:18 | 52.63374 | -2.48384 | 1842 ft | 110 kts | 340° |
| 2026-04-20 20:18 | 52.64033 | -2.48813 | 1904 ft | 100 kts | 351° |
| 2026-04-20 20:19 | 52.64708 | -2.49083 | 1916 ft | 99 kts | 6° |
| 2026-04-20 20:19 | 52.65389 | -2.49093 | 1995 ft | 98 kts | 10° |
| 2026-04-20 20:19 | 52.66070 | -2.49056 | 2050 ft | 101 kts | 13° |
| 2026-04-20 20:19 | 52.66791 | -2.49008 | 2001 ft | 111 kts | 9° |
| 2026-04-20 20:20 | 52.67583 | -2.49021 | 1986 ft | 113 kts | 9° |
| 2026-04-20 20:20 | 52.68347 | -2.48913 | 1935 ft | 110 kts | 19° |
| 2026-04-20 20:20 | 52.68953 | -2.48416 | 1948 ft | 91 kts | 74° |
| 2026-04-20 20:20 | 52.68858 | -2.47414 | 1919 ft | 89 kts | 105° |
| 2026-04-20 20:21 | 52.68705 | -2.46486 | 2014 ft | 80 kts | 102° |
| 2026-04-20 20:21 | 52.68561 | -2.45578 | 2048 ft | 83 kts | 101° |
| 2026-04-20 20:21 | 52.68361 | -2.44635 | 2087 ft | 87 kts | 107° |
| 2026-04-20 20:21 | 52.68163 | -2.43655 | 2023 ft | 97 kts | 99° |
| 2026-04-20 20:22 | 52.68322 | -2.42608 | 1967 ft | 104 kts | 62° |
| 2026-04-20 20:22 | 52.68836 | -2.41763 | 2112 ft | 93 kts | 48° |
| 2026-04-20 20:22 | 52.69254 | -2.40998 | 2233 ft | 88 kts | 63° |
| 2026-04-20 20:22 | 52.69383 | -2.39998 | 2197 ft | 91 kts | 87° |
| 2026-04-20 20:23 | 52.69425 | -2.38951 | 2089 ft | 96 kts | 87° |
| 2026-04-20 20:23 | 52.69458 | -2.37843 | 1921 ft | 97 kts | 87° |
| 2026-04-20 20:23 | 52.69460 | -2.36811 | 1943 ft | 87 kts | 90° |
| 2026-04-20 20:23 | 52.69451 | -2.35798 | 1912 ft | 89 kts | 90° |
| 2026-04-20 20:24 | 52.69449 | -2.34778 | 2048 ft | 90 kts | 92° |
| 2026-04-20 20:24 | 52.69453 | -2.33725 | 2000 ft | 98 kts | 91° |
| 2026-04-20 20:24 | 52.69417 | -2.32585 | 1965 ft | 97 kts | 91° |
| 2026-04-20 20:24 | 52.69382 | -2.31478 | 1923 ft | 98 kts | 92° |
| 2026-04-20 20:25 | 52.69366 | -2.30396 | 1953 ft | 93 kts | 91° |
| 2026-04-20 20:25 | 52.69326 | -2.29359 | 1900 ft | 91 kts | 92° |
| 2026-04-20 20:25 | 52.69310 | -2.28295 | 1858 ft | 93 kts | 89° |
| 2026-04-20 20:25 | 52.69354 | -2.27253 | 1882 ft | 87 kts | 85° |
| 2026-04-20 20:26 | 52.69355 | -2.26292 | 1934 ft | 83 kts | 92° |
| 2026-04-20 20:26 | 52.69306 | -2.25303 | 1997 ft | 90 kts | 94° |
| 2026-04-20 20:26 | 52.69227 | -2.24282 | 2016 ft | 91 kts | 96° |
| 2026-04-20 20:26 | 52.69186 | -2.23253 | 2018 ft | 90 kts | 92° |
| 2026-04-20 20:27 | 52.69113 | -2.22246 | 2040 ft | 90 kts | 104° |
| 2026-04-20 20:27 | 52.68714 | -2.21409 | 2010 ft | 95 kts | 134° |
| 2026-04-20 20:27 | 52.68131 | -2.20859 | 2116 ft | 98 kts | 146° |
| 2026-04-20 20:27 | 52.67497 | -2.20407 | 2042 ft | 103 kts | 150° |
| 2026-04-20 20:28 | 52.66814 | -2.20041 | 2043 ft | 106 kts | 162° |
| 2026-04-20 20:28 | 52.66080 | -2.19976 | 2184 ft | 102 kts | 168° |
| 2026-04-20 20:28 | 52.65353 | -2.20001 | 2252 ft | 110 kts | 176° |
| 2026-04-20 20:28 | 52.64523 | -2.20140 | 2010 ft | 121 kts | 178° |
| 2026-04-20 20:29 | 52.63710 | -2.20278 | 1973 ft | 114 kts | 173° |
| 2026-04-20 20:29 | 52.62905 | -2.20375 | 1849 ft | 118 kts | 175° |
| 2026-04-20 20:29 | 52.62124 | -2.20462 | 1937 ft | 105 kts | 175° |
| 2026-04-20 20:29 | 52.61407 | -2.20546 | 1972 ft | 105 kts | 173° |
| 2026-04-20 20:30 | 52.60666 | -2.20616 | 1958 ft | 105 kts | 173° |
| 2026-04-20 20:30 | 52.59946 | -2.20681 | 2085 ft | 101 kts | 172° |
| 2026-04-20 20:30 | 52.59258 | -2.20651 | 2218 ft | 102 kts | 167° |
| 2026-04-20 20:30 | 52.58562 | -2.20498 | 2215 ft | 103 kts | 161° |
| 2026-04-20 20:31 | 52.57813 | -2.20178 | 1947 ft | 111 kts | 156° |
| 2026-04-20 20:31 | 52.57105 | -2.19836 | 1894 ft | 105 kts | 154° |
| 2026-04-20 20:31 | 52.56448 | -2.19382 | 1817 ft | 100 kts | 146° |
| 2026-04-20 20:31 | 52.55741 | -2.19107 | 1673 ft | 109 kts | 167° |
| 2026-04-20 20:32 | 52.54982 | -2.19224 | 1593 ft | 109 kts | 181° |
| 2026-04-20 20:32 | 52.54286 | -2.19700 | 1757 ft | 110 kts | 203° |
| 2026-04-20 20:32 | 52.53663 | -2.20497 | 2009 ft | 115 kts | 215° |
| 2026-04-20 20:32 | 52.53124 | -2.21579 | 2046 ft | 132 kts | 232° |
| 2026-04-20 20:33 | 52.52767 | -2.22994 | 2021 ft | 132 kts | 249° |
| 2026-04-20 20:33 | 52.52505 | -2.24407 | 1869 ft | 118 kts | 252° |
| 2026-04-20 20:33 | 52.52264 | -2.25699 | 1962 ft | 119 kts | 250° |
| 2026-04-20 20:33 | 52.51997 | -2.26975 | 2010 ft | 122 kts | 248° |
| 2026-04-20 20:34 | 52.51596 | -2.28180 | 2016 ft | 118 kts | 213° |
| 2026-04-20 20:34 | 52.50877 | -2.28426 | 2136 ft | 101 kts | 163° |
| 2026-04-20 20:34 | 52.50145 | -2.28241 | 2136 ft | 110 kts | 165° |
| 2026-04-20 20:34 | 52.49660 | -2.27496 | 2078 ft | 99 kts | 94° |
| 2026-04-20 20:35 | 52.49819 | -2.26494 | 2219 ft | 87 kts | 73° |
| 2026-04-20 20:35 | 52.50041 | -2.25542 | 2161 ft | 88 kts | 70° |
| 2026-04-20 20:35 | 52.50322 | -2.24604 | 2168 ft | 88 kts | 63° |
| 2026-04-20 20:35 | 52.50868 | -2.24266 | 1986 ft | 96 kts | 360° |
| 2026-04-20 20:36 | 52.51526 | -2.24712 | 1707 ft | 103 kts | 345° |
| 2026-04-20 20:36 | 52.52167 | -2.25156 | 1387 ft | 94 kts | 347° |
| 2026-04-20 20:36 | 52.52779 | -2.25599 | 1256 ft | 101 kts | 340° |
| 2026-04-20 20:36 | 52.53149 | -2.26562 | 1285 ft | 106 kts | 274° |
| 2026-04-20 20:37 | 52.52982 | -2.27763 | 1204 ft | 110 kts | 250° |
| 2026-04-20 20:37 | 52.52645 | -2.28865 | 1237 ft | 102 kts | 218° |
| 2026-04-20 20:37 | 52.52000 | -2.29106 | 1193 ft | 94 kts | 162° |
| 2026-04-20 20:37 | 52.51383 | -2.28807 | 1236 ft | 93 kts | 152° |
| 2026-04-20 20:38 | 52.50783 | -2.28410 | 1196 ft | 95 kts | 150° |
| 2026-04-20 20:38 | 52.50189 | -2.27909 | 1148 ft | 95 kts | 149° |
| 2026-04-20 20:38 | 52.49738 | -2.27258 | 1105 ft | 92 kts | 96° |
| 2026-04-20 20:38 | 52.49919 | -2.26314 | 1099 ft | 87 kts | 70° |
| 2026-04-20 20:39 | 52.50165 | -2.25457 | 755 ft | 77 kts | 64° |
| 2026-04-20 20:39 | 52.50603 | -2.25156 | 600 ft | 81 kts | 352° |
| 2026-04-20 20:39 | 52.51077 | -2.25485 | 405 ft | 67 kts | 336° |
| 2026-04-20 20:39 | 52.51494 | -2.25781 | 285 ft | 61 kts | 342° |
| 2026-04-20 20:40 | 52.51787 | -2.25989 | 272 ft | 26 kts | 335° |
| 2026-04-20 20:40 | 52.51916 | -2.26086 | 274 ft | 18 kts | 341° |
| 2026-04-20 20:40 | 52.52002 | -2.26192 | 274 ft | 13 kts | 248° |
| 2026-04-20 20:40 | 52.51936 | -2.26284 | 275 ft | 14 kts | 213° |
| 2026-04-20 20:41 | 52.51858 | -2.26385 | 277 ft | 14 kts | 217° |
| 2026-04-20 20:41 | 52.51774 | -2.26487 | 277 ft | 17 kts | 217° |
| 2026-04-20 20:41 | 52.51674 | -2.26603 | 275 ft | 17 kts | 215° |
| 2026-04-20 20:41 | 52.51595 | -2.26705 | 265 ft | 11 kts | 216° |
| 2026-04-20 20:42 | 52.51543 | -2.26676 | 263 ft | 9 kts | 94° |
| 2026-04-20 20:42 | 52.51537 | -2.26577 | 266 ft | 9 kts | 96° |
| 2026-04-20 20:42 | 52.51530 | -2.26463 | 267 ft | 10 kts | 96° |
| 2026-04-20 20:42 | 52.51523 | -2.26355 | 269 ft | 8 kts | 96° |
| 2026-04-20 20:43 | 52.51522 | -2.26277 | 270 ft | 6 kts | 42° |
| 2026-04-20 20:43 | 52.51543 | -2.26301 | 270 ft | 5 kts | 311° |
| 2026-04-20 20:43 | 52.51552 | -2.26297 | 270 ft | 0 kts | 89° |
| 2026-04-20 20:43 | 52.51552 | -2.26289 | 270 ft | 0 kts | 86° |
| 2026-04-20 20:44 | 52.51552 | -2.26292 | 270 ft | 0 kts | 94° |
| 2026-04-20 20:45 | 52.51553 | -2.26299 | 270 ft | 1 kts | 95° |
| 2026-04-20 20:45 | 52.51553 | -2.26300 | 270 ft | 0 kts | 95° |